Time,TemperatureF,DewpointF,PressureIn,WindDirection,WindDirectionDegrees,WindSpeedMPH,WindSpeedGustMPH,Humidity,HourlyPrecipIn,Conditions,Clouds,dailyrainin,SoftwareType,DateUTC
2013-11-29 00:00:00,24.8,16.1,30.58,SW,225,0.0,0.0,69,0.00,,,0.00,VWS V12.08,2013-11-29 05:00:00,
2013-11-29 00:05:00,24.8,16.1,30.58,SW,225,0.0,0.0,69,0.00,,,0.00,VWS V12.08,2013-11-29 05:05:00,
2013-11-29 00:10:00,24.8,16.1,30.58,SW,225,0.0,0.0,69,0.00,,,0.00,VWS V12.08,2013-11-29 05:10:00,
2013-11-29 00:15:00,24.8,16.1,30.58,SW,225,0.0,0.0,69,0.00,,,0.00,VWS V12.08,2013-11-29 05:15:00,
2013-11-29 00:20:00,24.8,16.1,30.58,SW,225,0.0,0.0,69,0.00,,,0.00,VWS V12.08,2013-11-29 05:20:00,
2013-11-29 00:25:00,24.8,16.1,30.58,SW,225,0.0,0.0,69,0.00,,,0.00,VWS V12.08,2013-11-29 05:25:00,
2013-11-29 00:30:00,25.0,16.6,30.59,SW,225,0.0,0.0,70,0.00,,,0.00,VWS V12.08,2013-11-29 05:30:00,
2013-11-29 00:35:00,25.0,16.9,30.59,SW,225,0.0,0.0,71,0.00,,,0.00,VWS V12.08,2013-11-29 05:35:00,
2013-11-29 00:40:00,25.1,17.0,30.59,SW,225,0.0,0.0,71,0.00,,,0.00,VWS V12.08,2013-11-29 05:40:00,
2013-11-29 00:45:00,25.1,17.0,30.59,SW,225,0.0,0.0,71,0.00,,,0.00,VWS V12.08,2013-11-29 05:45:00,
2013-11-29 00:50:00,25.2,17.1,30.59,SW,225,0.0,0.0,71,0.00,,,0.00,VWS V12.08,2013-11-29 05:50:00,
2013-11-29 00:55:00,25.3,17.2,30.59,SW,225,0.0,0.0,71,0.00,,,0.00,VWS V12.08,2013-11-29 05:55:00,
2013-11-29 01:00:00,25.4,17.6,30.59,SW,225,0.0,0.0,72,0.00,,,0.00,VWS V12.08,2013-11-29 06:00:00,
2013-11-29 01:05:00,25.4,17.6,30.59,SW,225,0.0,0.0,72,0.00,,,0.00,VWS V12.08,2013-11-29 06:05:00,
2013-11-29 01:10:00,25.4,17.6,30.59,SW,225,0.0,0.0,72,0.00,,,0.00,VWS V12.08,2013-11-29 06:10:00,
2013-11-29 01:15:00,25.3,17.5,30.60,SW,225,0.0,0.0,72,0.00,,,0.00,VWS V12.08,2013-11-29 06:15:00,
2013-11-29 01:20:00,25.3,17.5,30.60,SW,225,0.0,0.0,72,0.00,,,0.00,VWS V12.08,2013-11-29 06:20:00,
2013-11-29 01:25:00,25.3,17.5,30.60,SW,225,0.0,0.0,72,0.00,,,0.00,VWS V12.08,2013-11-29 06:25:00,
2013-11-29 01:30:00,25.3,17.5,30.60,SW,225,0.0,0.0,72,0.00,,,0.00,VWS V12.08,2013-11-29 06:30:00,
2013-11-29 01:35:00,25.3,17.5,30.60,SW,225,0.0,0.0,72,0.00,,,0.00,VWS V12.08,2013-11-29 06:35:00,
2013-11-29 01:40:00,25.1,17.4,30.60,SW,225,0.0,0.0,72,0.00,,,0.00,VWS V12.08,2013-11-29 06:40:00,
2013-11-29 01:45:00,24.9,16.8,30.61,SW,225,0.0,0.0,71,0.00,,,0.00,VWS V12.08,2013-11-29 06:45:00,
2013-11-29 01:50:00,24.7,16.3,30.61,SW,225,0.0,0.0,70,0.00,,,0.00,VWS V12.08,2013-11-29 06:50:00,
2013-11-29 01:55:00,24.4,16.0,30.61,SW,225,0.0,0.0,70,0.00,,,0.00,VWS V12.08,2013-11-29 06:55:00,
2013-11-29 02:00:00,24.1,15.8,30.61,SW,225,0.0,0.0,70,0.00,,,0.00,VWS V12.08,2013-11-29 07:00:00,
2013-11-29 02:05:00,23.7,15.4,30.61,SW,225,0.0,0.0,70,0.00,,,0.00,VWS V12.08,2013-11-29 07:05:00,
2013-11-29 02:10:00,23.4,15.4,30.61,SW,225,0.0,0.0,71,0.00,,,0.00,VWS V12.08,2013-11-29 07:10:00,
2013-11-29 02:15:00,23.2,15.2,30.62,SW,225,0.0,0.0,71,0.00,,,0.00,VWS V12.08,2013-11-29 07:15:00,
2013-11-29 02:20:00,23.0,15.0,30.62,SW,225,0.0,0.0,71,0.00,,,0.00,VWS V12.08,2013-11-29 07:20:00,
2013-11-29 02:25:00,22.8,15.1,30.62,SW,225,0.0,0.0,72,0.00,,,0.00,VWS V12.08,2013-11-29 07:25:00,
2013-11-29 02:30:00,22.7,15.4,30.63,SW,225,0.0,0.0,73,0.00,,,0.00,VWS V12.08,2013-11-29 07:30:00,
2013-11-29 02:35:00,22.8,15.5,30.63,SW,225,0.0,0.0,73,0.00,,,0.00,VWS V12.08,2013-11-29 07:35:00,
2013-11-29 02:40:00,22.9,15.6,30.63,SW,225,0.0,0.0,73,0.00,,,0.00,VWS V12.08,2013-11-29 07:40:00,
2013-11-29 02:45:00,22.9,15.9,30.64,SW,225,0.0,0.0,74,0.00,,,0.00,VWS V12.08,2013-11-29 07:45:00,
2013-11-29 02:50:00,23.0,16.0,30.64,SW,225,0.0,0.0,74,0.00,,,0.00,VWS V12.08,2013-11-29 07:50:00,
2013-11-29 02:55:00,23.0,16.0,30.64,SW,225,0.0,0.0,74,0.00,,,0.00,VWS V12.08,2013-11-29 07:55:00,
2013-11-29 03:00:00,23.2,16.2,30.65,SW,225,0.0,0.0,74,0.00,,,0.00,VWS V12.08,2013-11-29 08:00:00,
2013-11-29 03:05:00,23.2,16.5,30.65,SW,225,0.0,0.0,75,0.00,,,0.00,VWS V12.08,2013-11-29 08:05:00,
2013-11-29 03:10:00,23.2,16.5,30.65,SW,225,0.0,0.0,75,0.00,,,0.00,VWS V12.08,2013-11-29 08:10:00,
2013-11-29 03:15:00,23.3,16.9,30.65,SW,225,0.0,0.0,76,0.00,,,0.00,VWS V12.08,2013-11-29 08:15:00,
2013-11-29 03:20:00,23.3,16.9,30.65,SW,225,0.0,0.0,76,0.00,,,0.00,VWS V12.08,2013-11-29 08:20:00,
2013-11-29 03:25:00,23.4,17.3,30.65,SW,225,0.0,0.0,77,0.00,,,0.00,VWS V12.08,2013-11-29 08:25:00,
2013-11-29 03:30:00,23.5,17.7,30.65,SW,225,0.0,0.0,78,0.00,,,0.00,VWS V12.08,2013-11-29 08:30:00,
2013-11-29 03:35:00,23.6,18.1,30.65,SW,225,0.0,0.0,79,0.00,,,0.00,VWS V12.08,2013-11-29 08:35:00,
2013-11-29 03:40:00,23.7,18.4,30.65,SW,225,0.0,0.0,80,0.00,,,0.00,VWS V12.08,2013-11-29 08:40:00,
2013-11-29 03:45:00,23.8,18.8,30.65,SW,225,0.0,0.0,81,0.00,,,0.00,VWS V12.08,2013-11-29 08:45:00,
2013-11-29 03:50:00,23.8,18.8,30.65,SW,225,0.0,0.0,81,0.00,,,0.00,VWS V12.08,2013-11-29 08:50:00,
2013-11-29 03:55:00,23.7,18.7,30.65,SW,225,0.0,0.0,81,0.00,,,0.00,VWS V12.08,2013-11-29 08:55:00,
2013-11-29 04:00:00,23.6,18.6,30.66,SW,225,0.0,0.0,81,0.00,,,0.00,VWS V12.08,2013-11-29 09:00:00,
2013-11-29 04:05:00,23.6,18.4,30.66,SW,225,0.0,0.0,80,0.00,,,0.00,VWS V12.08,2013-11-29 09:05:00,
2013-11-29 04:10:00,23.5,18.2,30.66,SW,225,0.0,0.0,80,0.00,,,0.00,VWS V12.08,2013-11-29 09:10:00,
2013-11-29 04:15:00,23.5,18.0,30.66,SW,225,0.0,0.0,79,0.00,,,0.00,VWS V12.08,2013-11-29 09:15:00,
2013-11-29 04:20:00,23.5,18.0,30.66,SW,225,0.0,0.0,79,0.00,,,0.00,VWS V12.08,2013-11-29 09:20:00,
2013-11-29 04:25:00,23.5,18.0,30.66,SW,225,0.0,0.0,79,0.00,,,0.00,VWS V12.08,2013-11-29 09:25:00,
2013-11-29 04:30:00,23.5,18.0,30.67,SW,225,0.0,0.0,79,0.00,,,0.00,VWS V12.08,2013-11-29 09:30:00,
2013-11-29 04:35:00,23.5,18.0,30.67,SW,225,0.0,0.0,79,0.00,,,0.00,VWS V12.08,2013-11-29 09:35:00,
2013-11-29 04:40:00,23.5,18.0,30.67,SW,225,0.0,0.0,79,0.00,,,0.00,VWS V12.08,2013-11-29 09:40:00,
2013-11-29 04:45:00,23.5,18.0,30.68,SW,225,0.0,0.0,79,0.00,,,0.00,VWS V12.08,2013-11-29 09:45:00,
2013-11-29 04:50:00,23.4,17.9,30.68,SW,225,0.0,0.0,79,0.00,,,0.00,VWS V12.08,2013-11-29 09:50:00,
2013-11-29 04:55:00,23.2,17.7,30.68,SW,225,0.0,0.0,79,0.00,,,0.00,VWS V12.08,2013-11-29 09:55:00,
2013-11-29 05:00:00,23.1,17.6,30.69,SW,225,0.0,0.0,79,0.00,,,0.00,VWS V12.08,2013-11-29 10:00:00,
2013-11-29 05:05:00,23.0,17.8,30.69,SW,225,0.0,0.0,80,0.00,,,0.00,VWS V12.08,2013-11-29 10:05:00,
2013-11-29 05:10:00,22.7,17.5,30.69,SW,225,0.0,0.0,80,0.00,,,0.00,VWS V12.08,2013-11-29 10:10:00,
2013-11-29 05:15:00,22.4,16.9,30.69,SW,225,0.0,0.0,79,0.00,,,0.00,VWS V12.08,2013-11-29 10:15:00,
2013-11-29 05:20:00,22.1,16.6,30.69,SW,225,0.0,0.0,79,0.00,,,0.00,VWS V12.08,2013-11-29 10:20:00,
2013-11-29 05:25:00,21.8,16.3,30.69,SW,225,0.0,0.0,79,0.00,,,0.00,VWS V12.08,2013-11-29 10:25:00,
2013-11-29 05:30:00,21.5,16.0,30.71,SW,225,0.0,0.0,79,0.00,,,0.00,VWS V12.08,2013-11-29 10:30:00,
2013-11-29 05:35:00,21.3,15.8,30.71,SW,225,0.0,0.0,79,0.00,,,0.00,VWS V12.08,2013-11-29 10:35:00,
2013-11-29 05:40:00,21.1,15.9,30.71,SW,225,0.0,0.0,80,0.00,,,0.00,VWS V12.08,2013-11-29 10:40:00,
2013-11-29 05:45:00,20.8,15.6,30.71,SW,225,0.0,0.0,80,0.00,,,0.00,VWS V12.08,2013-11-29 10:45:00,
2013-11-29 05:50:00,20.6,15.7,30.71,SW,225,0.0,0.0,81,0.00,,,0.00,VWS V12.08,2013-11-29 10:50:00,
2013-11-29 05:55:00,20.5,15.6,30.71,SW,225,0.0,0.0,81,0.00,,,0.00,VWS V12.08,2013-11-29 10:55:00,
2013-11-29 06:00:00,20.5,15.6,30.72,SW,225,0.0,0.0,81,0.00,,,0.00,VWS V12.08,2013-11-29 11:00:00,
2013-11-29 06:05:00,20.5,15.9,30.72,SW,225,0.0,0.0,82,0.00,,,0.00,VWS V12.08,2013-11-29 11:05:00,
2013-11-29 06:10:00,20.5,15.9,30.72,SW,225,0.0,0.0,82,0.00,,,0.00,VWS V12.08,2013-11-29 11:10:00,
2013-11-29 06:15:00,20.5,15.9,30.72,SW,225,0.0,0.0,82,0.00,,,0.00,VWS V12.08,2013-11-29 11:15:00,
2013-11-29 06:20:00,20.4,15.8,30.72,SW,225,0.0,0.0,82,0.00,,,0.00,VWS V12.08,2013-11-29 11:20:00,
2013-11-29 06:25:00,20.3,15.7,30.72,SW,225,0.0,0.0,82,0.00,,,0.00,VWS V12.08,2013-11-29 11:25:00,
2013-11-29 06:30:00,20.1,15.5,30.74,SW,225,0.0,0.0,82,0.00,,,0.00,VWS V12.08,2013-11-29 11:30:00,
2013-11-29 06:35:00,19.9,15.3,30.74,SW,225,0.0,0.0,82,0.00,,,0.00,VWS V12.08,2013-11-29 11:35:00,
2013-11-29 06:40:00,19.7,15.4,30.74,SW,225,0.0,0.0,83,0.00,,,0.00,VWS V12.08,2013-11-29 11:40:00,
2013-11-29 06:45:00,19.5,15.2,30.75,SW,225,0.0,0.0,83,0.00,,,0.00,VWS V12.08,2013-11-29 11:45:00,
2013-11-29 06:50:00,19.4,15.4,30.75,SW,225,0.0,0.0,84,0.00,,,0.00,VWS V12.08,2013-11-29 11:50:00,
2013-11-29 06:55:00,19.3,15.3,30.75,SW,225,0.0,0.0,84,0.00,,,0.00,VWS V12.08,2013-11-29 11:55:00,
2013-11-29 07:00:00,19.1,15.1,30.76,SW,225,0.0,0.0,84,0.00,,,0.00,VWS V12.08,2013-11-29 12:00:00,
2013-11-29 07:05:00,19.1,15.3,30.76,SW,225,0.0,0.0,85,0.00,,,0.00,VWS V12.08,2013-11-29 12:05:00,
2013-11-29 07:10:00,19.1,15.3,30.76,SW,225,0.0,0.0,85,0.00,,,0.00,VWS V12.08,2013-11-29 12:10:00,
2013-11-29 07:15:00,18.9,15.1,30.77,SW,225,0.0,0.0,85,0.00,,,0.00,VWS V12.08,2013-11-29 12:15:00,
2013-11-29 07:20:00,19.1,15.6,30.77,SW,225,0.0,0.0,86,0.00,,,0.00,VWS V12.08,2013-11-29 12:20:00,
2013-11-29 07:25:00,19.2,15.7,30.77,SW,225,0.0,0.0,86,0.00,,,0.00,VWS V12.08,2013-11-29 12:25:00,
2013-11-29 07:30:00,19.3,15.8,30.77,SW,225,0.0,0.0,86,0.00,,,0.00,VWS V12.08,2013-11-29 12:30:00,
2013-11-29 07:35:00,19.4,16.2,30.77,SW,225,0.0,0.0,87,0.00,,,0.00,VWS V12.08,2013-11-29 12:35:00,
2013-11-29 07:40:00,19.5,16.3,30.77,SW,225,0.0,0.0,87,0.00,,,0.00,VWS V12.08,2013-11-29 12:40:00,
2013-11-29 07:45:00,19.5,16.3,30.78,SW,225,0.0,0.0,87,0.00,,,0.00,VWS V12.08,2013-11-29 12:45:00,
2013-11-29 07:50:00,19.4,16.2,30.78,SW,225,0.0,0.0,87,0.00,,,0.00,VWS V12.08,2013-11-29 12:50:00,
2013-11-29 07:55:00,19.4,15.9,30.78,SW,225,0.0,0.0,86,0.00,,,0.00,VWS V12.08,2013-11-29 12:55:00,
2013-11-29 08:00:00,19.2,15.7,30.78,SW,225,0.0,0.0,86,0.00,,,0.00,VWS V12.08,2013-11-29 13:00:00,
2013-11-29 08:05:00,19.1,15.9,30.78,SW,225,0.0,0.0,87,0.00,,,0.00,VWS V12.08,2013-11-29 13:05:00,
2013-11-29 08:10:00,19.1,15.9,30.78,SW,225,0.0,0.0,87,0.00,,,0.00,VWS V12.08,2013-11-29 13:10:00,
2013-11-29 08:15:00,19.1,15.9,30.80,SW,225,0.0,0.0,87,0.00,,,0.00,VWS V12.08,2013-11-29 13:15:00,
2013-11-29 08:20:00,18.9,15.7,30.80,SW,225,0.0,0.0,87,0.00,,,0.00,VWS V12.08,2013-11-29 13:20:00,
2013-11-29 08:25:00,18.9,15.9,30.80,SW,225,0.0,0.0,88,0.00,,,0.00,VWS V12.08,2013-11-29 13:25:00,
2013-11-29 08:30:00,18.9,15.9,30.80,SW,225,0.0,0.0,88,0.00,,,0.00,VWS V12.08,2013-11-29 13:30:00,
2013-11-29 08:35:00,18.9,15.9,30.80,SW,225,0.0,0.0,88,0.00,,,0.00,VWS V12.08,2013-11-29 13:35:00,
2013-11-29 08:40:00,19.0,16.0,30.80,SW,225,0.0,0.0,88,0.00,,,0.00,VWS V12.08,2013-11-29 13:40:00,
2013-11-29 08:45:00,19.3,16.6,30.81,SW,225,0.0,0.0,89,0.00,,,0.00,VWS V12.08,2013-11-29 13:45:00,
2013-11-29 08:50:00,19.7,17.0,30.81,SW,225,0.0,0.0,89,0.00,,,0.00,VWS V12.08,2013-11-29 13:50:00,
2013-11-29 08:55:00,19.9,17.2,30.81,SW,225,0.0,0.0,89,0.00,,,0.00,VWS V12.08,2013-11-29 13:55:00,
2013-11-29 09:00:00,20.1,17.4,30.81,SW,225,0.0,0.0,89,0.00,,,0.00,VWS V12.08,2013-11-29 14:00:00,
2013-11-29 09:05:00,20.4,17.7,30.81,SW,225,0.0,0.0,89,0.00,,,0.00,VWS V12.08,2013-11-29 14:05:00,
2013-11-29 09:10:00,20.6,17.9,30.81,SW,225,0.0,0.0,89,0.00,,,0.00,VWS V12.08,2013-11-29 14:10:00,
2013-11-29 09:15:00,20.9,18.4,30.82,SW,225,0.0,0.0,90,0.00,,,0.00,VWS V12.08,2013-11-29 14:15:00,
2013-11-29 09:20:00,21.4,18.9,30.82,SW,225,0.0,0.0,90,0.00,,,0.00,VWS V12.08,2013-11-29 14:20:00,
2013-11-29 09:25:00,22.1,19.4,30.82,SW,225,0.0,2.0,89,0.00,,,0.00,VWS V12.08,2013-11-29 14:25:00,
2013-11-29 09:30:00,22.9,19.4,30.82,SW,225,0.0,2.0,86,0.00,,,0.00,VWS V12.08,2013-11-29 14:30:00,
2013-11-29 09:35:00,23.8,19.4,30.82,WSW,248,0.0,2.0,83,0.00,,,0.00,VWS V12.08,2013-11-29 14:35:00,
2013-11-29 09:40:00,24.5,19.5,30.82,WSW,248,0.0,2.0,81,0.00,,,0.00,VWS V12.08,2013-11-29 14:40:00,
2013-11-29 09:45:00,24.9,19.3,30.82,WSW,248,0.0,0.0,79,0.00,,,0.00,VWS V12.08,2013-11-29 14:45:00,
2013-11-29 09:50:00,25.5,19.6,30.82,WSW,248,0.0,0.0,78,0.00,,,0.00,VWS V12.08,2013-11-29 14:50:00,
2013-11-29 09:55:00,25.9,19.4,30.82,WSW,248,0.0,0.0,76,0.00,,,0.00,VWS V12.08,2013-11-29 14:55:00,
2013-11-29 10:00:00,26.3,19.5,30.81,WSW,248,0.0,0.0,75,0.00,,,0.00,VWS V12.08,2013-11-29 15:00:00,
2013-11-29 10:05:00,26.6,19.1,30.81,WSW,248,0.0,0.0,73,0.00,,,0.00,VWS V12.08,2013-11-29 15:05:00,
2013-11-29 10:10:00,27.0,19.5,30.81,WSW,248,0.0,0.0,73,0.00,,,0.00,VWS V12.08,2013-11-29 15:10:00,
2013-11-29 10:15:00,27.4,19.2,30.82,WSW,248,0.0,0.0,71,0.00,,,0.00,VWS V12.08,2013-11-29 15:15:00,
2013-11-29 10:20:00,28.0,19.8,30.82,WSW,248,0.0,0.0,71,0.00,,,0.00,VWS V12.08,2013-11-29 15:20:00,
2013-11-29 10:25:00,28.7,20.2,30.82,WSW,248,0.0,0.0,70,0.00,,,0.00,VWS V12.08,2013-11-29 15:25:00,
2013-11-29 10:30:00,29.3,20.1,30.82,WSW,248,0.0,0.0,68,0.00,,,0.00,VWS V12.08,2013-11-29 15:30:00,
2013-11-29 10:35:00,29.9,19.9,30.82,WSW,248,0.0,0.0,66,0.00,,,0.00,VWS V12.08,2013-11-29 15:35:00,
2013-11-29 10:40:00,30.6,19.5,30.82,WSW,248,0.0,0.0,63,0.00,,,0.00,VWS V12.08,2013-11-29 15:40:00,
2013-11-29 10:45:00,30.8,20.4,30.82,WSW,248,0.0,0.0,65,0.00,,,0.00,VWS V12.08,2013-11-29 15:45:00,
2013-11-29 10:50:00,30.9,19.8,30.82,WSW,248,0.0,0.0,63,0.00,,,0.00,VWS V12.08,2013-11-29 15:50:00,
2013-11-29 10:55:00,30.8,19.7,30.82,WSW,248,0.0,0.0,63,0.00,,,0.00,VWS V12.08,2013-11-29 15:55:00,
2013-11-29 11:00:00,30.7,19.6,30.81,WSW,248,0.0,0.0,63,0.00,,,0.00,VWS V12.08,2013-11-29 16:00:00,
2013-11-29 11:05:00,30.8,19.7,30.81,WSW,248,0.0,0.0,63,0.00,,,0.00,VWS V12.08,2013-11-29 16:05:00,
2013-11-29 11:10:00,31.3,20.2,30.81,WSW,248,0.0,0.0,63,0.00,,,0.00,VWS V12.08,2013-11-29 16:10:00,
2013-11-29 11:15:00,31.9,20.8,30.81,WSW,248,0.0,0.0,63,0.00,,,0.00,VWS V12.08,2013-11-29 16:15:00,
2013-11-29 11:20:00,32.4,20.5,30.81,West,270,0.0,2.0,61,0.00,,,0.00,VWS V12.08,2013-11-29 16:20:00,
2013-11-29 11:25:00,32.6,19.5,30.81,West,270,0.0,0.0,58,0.00,,,0.00,VWS V12.08,2013-11-29 16:25:00,
2013-11-29 11:30:00,32.5,19.4,30.80,West,270,0.0,0.0,58,0.00,,,0.00,VWS V12.08,2013-11-29 16:30:00,
2013-11-29 11:35:00,32.2,19.9,30.80,West,270,0.0,0.0,60,0.00,,,0.00,VWS V12.08,2013-11-29 16:35:00,
2013-11-29 11:40:00,32.2,19.5,30.80,West,270,0.0,0.0,59,0.00,,,0.00,VWS V12.08,2013-11-29 16:40:00,
2013-11-29 11:45:00,31.9,19.6,30.80,West,270,0.0,0.0,60,0.00,,,0.00,VWS V12.08,2013-11-29 16:45:00,
2013-11-29 11:50:00,32.0,19.3,30.80,West,270,0.0,0.0,59,0.00,,,0.00,VWS V12.08,2013-11-29 16:50:00,
2013-11-29 11:55:00,32.4,18.5,30.80,West,270,0.0,0.0,56,0.00,,,0.00,VWS V12.08,2013-11-29 16:55:00,
2013-11-29 12:00:00,32.4,18.0,30.80,West,270,0.0,5.0,55,0.00,,,0.00,VWS V12.08,2013-11-29 17:00:00,
2013-11-29 12:05:00,32.4,17.6,30.80,WNW,292,1.0,5.0,54,0.00,,,0.00,VWS V12.08,2013-11-29 17:05:00,
2013-11-29 12:10:00,32.8,18.4,30.80,WNW,292,0.0,0.0,55,0.00,,,0.00,VWS V12.08,2013-11-29 17:10:00,
2013-11-29 12:15:00,33.1,18.3,30.79,WNW,292,0.0,1.0,54,0.00,,,0.00,VWS V12.08,2013-11-29 17:15:00,
2013-11-29 12:20:00,32.9,18.1,30.79,WNW,292,0.0,0.0,54,0.00,,,0.00,VWS V12.08,2013-11-29 17:20:00,
2013-11-29 12:25:00,33.4,18.6,30.79,WNW,292,0.0,3.0,54,0.00,,,0.00,VWS V12.08,2013-11-29 17:25:00,
2013-11-29 12:30:00,34.0,17.8,30.78,WNW,292,0.0,0.0,51,0.00,,,0.00,VWS V12.08,2013-11-29 17:30:00,
2013-11-29 12:35:00,34.2,18.0,30.78,WNW,292,0.0,0.0,51,0.00,,,0.00,VWS V12.08,2013-11-29 17:35:00,
2013-11-29 12:40:00,34.5,18.7,30.78,WNW,292,0.0,0.0,52,0.00,,,0.00,VWS V12.08,2013-11-29 17:40:00,
2013-11-29 12:45:00,34.6,18.3,30.78,WNW,292,1.0,3.0,51,0.00,,,0.00,VWS V12.08,2013-11-29 17:45:00,
2013-11-29 12:50:00,34.5,17.8,30.78,WNW,292,0.0,0.0,50,0.00,,,0.00,VWS V12.08,2013-11-29 17:50:00,
2013-11-29 12:55:00,34.4,17.2,30.78,WNW,292,0.0,0.0,49,0.00,,,0.00,VWS V12.08,2013-11-29 17:55:00,
2013-11-29 13:00:00,34.2,17.5,30.78,WNW,292,0.0,1.0,50,0.00,,,0.00,VWS V12.08,2013-11-29 18:00:00,
2013-11-29 13:05:00,34.1,17.4,30.78,WNW,292,0.0,1.0,50,0.00,,,0.00,VWS V12.08,2013-11-29 18:05:00,
2013-11-29 13:10:00,34.1,17.9,30.78,WNW,292,0.0,0.0,51,0.00,,,0.00,VWS V12.08,2013-11-29 18:10:00,
2013-11-29 13:15:00,34.3,18.5,30.77,WNW,292,0.0,0.0,52,0.00,,,0.00,VWS V12.08,2013-11-29 18:15:00,
2013-11-29 13:20:00,34.6,17.4,30.77,WNW,292,0.0,0.0,49,0.00,,,0.00,VWS V12.08,2013-11-29 18:20:00,
2013-11-29 13:25:00,35.1,18.4,30.77,WNW,292,0.0,2.0,50,0.00,,,0.00,VWS V12.08,2013-11-29 18:25:00,
2013-11-29 13:30:00,35.5,17.3,30.76,WNW,292,0.0,0.0,47,0.00,,,0.00,VWS V12.08,2013-11-29 18:30:00,
2013-11-29 13:35:00,35.6,17.9,30.76,WNW,292,0.0,0.0,48,0.00,,,0.00,VWS V12.08,2013-11-29 18:35:00,
2013-11-29 13:40:00,35.5,17.3,30.76,WNW,292,0.0,2.0,47,0.00,,,0.00,VWS V12.08,2013-11-29 18:40:00,
2013-11-29 13:45:00,35.2,18.0,30.76,WNW,292,0.0,0.0,49,0.00,,,0.00,VWS V12.08,2013-11-29 18:45:00,
2013-11-29 13:50:00,35.2,17.5,30.76,WNW,292,0.0,0.0,48,0.00,,,0.00,VWS V12.08,2013-11-29 18:50:00,
2013-11-29 13:55:00,35.0,17.3,30.76,WNW,292,0.0,0.0,48,0.00,,,0.00,VWS V12.08,2013-11-29 18:55:00,
2013-11-29 14:00:00,34.8,18.1,30.76,WNW,292,0.0,0.0,50,0.00,,,0.00,VWS V12.08,2013-11-29 19:00:00,
2013-11-29 14:05:00,34.8,17.6,30.76,WNW,292,0.0,0.0,49,0.00,,,0.00,VWS V12.08,2013-11-29 19:05:00,
2013-11-29 14:10:00,34.9,17.2,30.76,WNW,292,0.0,3.0,48,0.00,,,0.00,VWS V12.08,2013-11-29 19:10:00,
2013-11-29 14:15:00,34.7,17.5,30.76,WNW,292,0.0,2.0,49,0.00,,,0.00,VWS V12.08,2013-11-29 19:15:00,
2013-11-29 14:20:00,34.4,17.2,30.76,WNW,292,1.0,3.0,49,0.00,,,0.00,VWS V12.08,2013-11-29 19:20:00,
2013-11-29 14:25:00,34.2,17.0,30.76,WSW,248,1.0,7.0,49,0.00,,,0.00,VWS V12.08,2013-11-29 19:25:00,
2013-11-29 14:30:00,34.3,17.1,30.77,WSW,248,0.0,0.0,49,0.00,,,0.00,VWS V12.08,2013-11-29 19:30:00,
2013-11-29 14:35:00,34.3,17.1,30.77,WSW,248,0.0,0.0,49,0.00,,,0.00,VWS V12.08,2013-11-29 19:35:00,
2013-11-29 14:40:00,34.4,17.2,30.77,WSW,248,0.0,0.0,49,0.00,,,0.00,VWS V12.08,2013-11-29 19:40:00,
2013-11-29 14:45:00,34.5,17.3,30.76,WSW,248,0.0,0.0,49,0.00,,,0.00,VWS V12.08,2013-11-29 19:45:00,
2013-11-29 14:50:00,34.7,18.9,30.76,North,0,0.0,0.0,52,0.00,,,0.00,VWS V12.08,2013-11-29 19:50:00,
2013-11-29 14:55:00,34.7,18.9,30.76,SW,225,0.0,3.0,52,0.00,,,0.00,VWS V12.08,2013-11-29 19:55:00,
2013-11-29 15:00:00,34.7,19.3,30.76,SW,225,0.0,2.0,53,0.00,,,0.00,VWS V12.08,2013-11-29 20:00:00,
2013-11-29 15:05:00,34.6,19.7,30.76,SW,225,0.0,3.0,54,0.00,,,0.00,VWS V12.08,2013-11-29 20:05:00,
2013-11-29 15:10:00,34.5,19.1,30.76,East,90,1.0,4.0,53,0.00,,,0.00,VWS V12.08,2013-11-29 20:10:00,
2013-11-29 15:15:00,34.2,19.3,30.77,ESE,112,0.0,2.0,54,0.00,,,0.00,VWS V12.08,2013-11-29 20:15:00,
2013-11-29 15:20:00,33.9,19.0,30.77,ESE,112,1.0,3.0,54,0.00,,,0.00,VWS V12.08,2013-11-29 20:20:00,
2013-11-29 15:25:00,33.6,19.2,30.77,ESE,112,0.0,2.0,55,0.00,,,0.00,VWS V12.08,2013-11-29 20:25:00,
2013-11-29 15:30:00,33.5,19.5,30.78,ESE,112,0.0,3.0,56,0.00,,,0.00,VWS V12.08,2013-11-29 20:30:00,
2013-11-29 15:35:00,33.4,19.4,30.78,ESE,112,0.0,0.0,56,0.00,,,0.00,VWS V12.08,2013-11-29 20:35:00,
2013-11-29 15:40:00,33.4,19.8,30.78,ESE,112,0.0,0.0,57,0.00,,,0.00,VWS V12.08,2013-11-29 20:40:00,
2013-11-29 15:45:00,33.4,19.8,30.78,ESE,112,0.0,0.0,57,0.00,,,0.00,VWS V12.08,2013-11-29 20:45:00,
2013-11-29 15:50:00,33.3,20.1,30.78,ESE,112,1.0,4.0,58,0.00,,,0.00,VWS V12.08,2013-11-29 20:50:00,
2013-11-29 15:55:00,33.1,20.3,30.78,ESE,112,0.0,3.0,59,0.00,,,0.00,VWS V12.08,2013-11-29 20:55:00,
2013-11-29 16:00:00,32.9,20.2,30.78,ESE,112,0.0,0.0,59,0.00,,,0.00,VWS V12.08,2013-11-29 21:00:00,
2013-11-29 16:05:00,32.8,20.5,30.78,ESE,112,0.0,0.0,60,0.00,,,0.00,VWS V12.08,2013-11-29 21:05:00,
2013-11-29 16:10:00,32.6,20.7,30.78,ESE,112,0.0,0.0,61,0.00,,,0.00,VWS V12.08,2013-11-29 21:10:00,
2013-11-29 16:15:00,32.4,20.5,30.80,ESE,112,0.0,0.0,61,0.00,,,0.00,VWS V12.08,2013-11-29 21:15:00,
2013-11-29 16:20:00,32.1,20.6,30.80,ESE,112,0.0,0.0,62,0.00,,,0.00,VWS V12.08,2013-11-29 21:20:00,
2013-11-29 16:25:00,31.7,20.6,30.80,ESE,112,0.0,0.0,63,0.00,,,0.00,VWS V12.08,2013-11-29 21:25:00,
2013-11-29 16:30:00,31.3,20.5,30.79,ESE,112,0.0,0.0,64,0.00,,,0.00,VWS V12.08,2013-11-29 21:30:00,
2013-11-29 16:35:00,30.9,20.5,30.79,ESE,112,0.0,3.0,65,0.00,,,0.00,VWS V12.08,2013-11-29 21:35:00,
2013-11-29 16:40:00,30.6,20.6,30.79,ESE,112,0.0,3.0,66,0.00,,,0.00,VWS V12.08,2013-11-29 21:40:00,
2013-11-29 16:45:00,30.3,20.3,30.78,ESE,112,0.0,3.0,66,0.00,,,0.00,VWS V12.08,2013-11-29 21:45:00,
2013-11-29 16:50:00,30.0,20.4,30.78,ESE,112,0.0,0.0,67,0.00,,,0.00,VWS V12.08,2013-11-29 21:50:00,
2013-11-29 16:55:00,29.7,20.1,30.78,ESE,112,0.0,0.0,67,0.00,,,0.00,VWS V12.08,2013-11-29 21:55:00,
2013-11-29 17:00:00,29.4,20.2,30.81,ESE,112,0.0,0.0,68,0.00,,,0.00,VWS V12.08,2013-11-29 22:00:00,
2013-11-29 17:05:00,29.2,20.0,30.81,ESE,112,0.0,0.0,68,0.00,,,0.00,VWS V12.08,2013-11-29 22:05:00,
2013-11-29 17:10:00,28.9,20.0,30.81,ESE,112,0.0,0.0,69,0.00,,,0.00,VWS V12.08,2013-11-29 22:10:00,
2013-11-29 17:15:00,28.6,20.1,30.82,ESE,112,0.0,0.0,70,0.00,,,0.00,VWS V12.08,2013-11-29 22:15:00,
2013-11-29 17:20:00,28.4,20.2,30.82,ESE,112,0.0,0.0,71,0.00,,,0.00,VWS V12.08,2013-11-29 22:20:00,
2013-11-29 17:25:00,28.2,20.0,30.82,ESE,112,0.0,0.0,71,0.00,,,0.00,VWS V12.08,2013-11-29 22:25:00,
2013-11-29 17:30:00,28.1,20.2,30.81,ESE,112,0.0,0.0,72,0.00,,,0.00,VWS V12.08,2013-11-29 22:30:00,
2013-11-29 17:35:00,27.9,20.1,30.81,ESE,112,0.0,0.0,72,0.00,,,0.00,VWS V12.08,2013-11-29 22:35:00,
2013-11-29 17:40:00,27.7,20.2,30.81,ESE,112,0.0,0.0,73,0.00,,,0.00,VWS V12.08,2013-11-29 22:40:00,
2013-11-29 17:45:00,27.5,20.3,30.81,ESE,112,0.0,0.0,74,0.00,,,0.00,VWS V12.08,2013-11-29 22:45:00,
2013-11-29 17:50:00,27.2,20.0,30.81,ESE,112,0.0,0.0,74,0.00,,,0.00,VWS V12.08,2013-11-29 22:50:00,
2013-11-29 17:55:00,27.0,20.1,30.81,ESE,112,0.0,0.0,75,0.00,,,0.00,VWS V12.08,2013-11-29 22:55:00,
2013-11-29 18:00:00,26.8,20.0,30.80,ESE,112,0.0,0.0,75,0.00,,,0.00,VWS V12.08,2013-11-29 23:00:00,
2013-11-29 18:05:00,26.7,20.2,30.80,ESE,112,0.0,0.0,76,0.00,,,0.00,VWS V12.08,2013-11-29 23:05:00,
2013-11-29 18:10:00,26.6,20.4,30.80,ESE,112,0.0,0.0,77,0.00,,,0.00,VWS V12.08,2013-11-29 23:10:00,
2013-11-29 18:15:00,26.6,20.4,30.80,ESE,112,0.0,0.0,77,0.00,,,0.00,VWS V12.08,2013-11-29 23:15:00,
2013-11-29 18:20:00,26.6,20.7,30.80,ESE,112,0.0,0.0,78,0.00,,,0.00,VWS V12.08,2013-11-29 23:20:00,
2013-11-29 18:25:00,26.6,20.7,30.80,ESE,112,0.0,0.0,78,0.00,,,0.00,VWS V12.08,2013-11-29 23:25:00,
2013-11-29 18:30:00,26.4,20.5,30.82,ESE,112,0.0,0.0,78,0.00,,,0.00,VWS V12.08,2013-11-29 23:30:00,
2013-11-29 18:35:00,26.2,20.3,30.82,ESE,112,0.0,0.0,78,0.00,,,0.00,VWS V12.08,2013-11-29 23:35:00,
2013-11-29 18:40:00,26.0,20.1,30.82,ESE,112,0.0,0.0,78,0.00,,,0.00,VWS V12.08,2013-11-29 23:40:00,
2013-11-29 18:45:00,25.9,20.0,30.82,ESE,112,0.0,0.0,78,0.00,,,0.00,VWS V12.08,2013-11-29 23:45:00,
2013-11-29 18:50:00,25.7,20.1,30.82,ESE,112,0.0,0.0,79,0.00,,,0.00,VWS V12.08,2013-11-29 23:50:00,
2013-11-29 18:55:00,25.6,20.0,30.82,ESE,112,0.0,0.0,79,0.00,,,0.00,VWS V12.08,2013-11-29 23:55:00,
2013-11-29 19:00:00,25.4,19.8,30.82,ESE,112,0.0,0.0,79,0.00,,,0.00,VWS V12.08,2013-11-30 00:00:00,
2013-11-29 19:05:00,25.2,19.6,30.82,ESE,112,0.0,0.0,79,0.00,,,0.00,VWS V12.08,2013-11-30 00:05:00,
2013-11-29 19:10:00,25.0,19.7,30.82,ESE,112,0.0,0.0,80,0.00,,,0.00,VWS V12.08,2013-11-30 00:10:00,
2013-11-29 19:15:00,24.8,19.5,30.82,ESE,112,0.0,0.0,80,0.00,,,0.00,VWS V12.08,2013-11-30 00:15:00,
2013-11-29 19:20:00,24.6,19.6,30.82,ESE,112,0.0,0.0,81,0.00,,,0.00,VWS V12.08,2013-11-30 00:20:00,
2013-11-29 19:25:00,24.4,19.4,30.82,ESE,112,0.0,0.0,81,0.00,,,0.00,VWS V12.08,2013-11-30 00:25:00,
2013-11-29 19:30:00,24.3,19.3,30.82,ESE,112,0.0,0.0,81,0.00,,,0.00,VWS V12.08,2013-11-30 00:30:00,
2013-11-29 19:35:00,24.1,19.1,30.82,ESE,112,0.0,0.0,81,0.00,,,0.00,VWS V12.08,2013-11-30 00:35:00,
2013-11-29 19:40:00,23.9,18.9,30.82,ESE,112,0.0,0.0,81,0.00,,,0.00,VWS V12.08,2013-11-30 00:40:00,
2013-11-29 19:45:00,23.8,19.1,30.82,ESE,112,0.0,0.0,82,0.00,,,0.00,VWS V12.08,2013-11-30 00:45:00,
2013-11-29 19:50:00,23.8,19.1,30.82,ESE,112,0.0,0.0,82,0.00,,,0.00,VWS V12.08,2013-11-30 00:50:00,
2013-11-29 19:55:00,23.6,18.9,30.82,ESE,112,0.0,0.0,82,0.00,,,0.00,VWS V12.08,2013-11-30 00:55:00,
2013-11-29 20:00:00,23.5,19.1,30.81,ESE,112,0.0,0.0,83,0.00,,,0.00,VWS V12.08,2013-11-30 01:00:00,
2013-11-29 20:05:00,23.4,19.0,30.81,ESE,112,0.0,0.0,83,0.00,,,0.00,VWS V12.08,2013-11-30 01:05:00,
2013-11-29 20:10:00,23.3,18.9,30.81,ESE,112,0.0,0.0,83,0.00,,,0.00,VWS V12.08,2013-11-30 01:10:00,
2013-11-29 20:15:00,23.2,19.1,30.81,ESE,112,0.0,0.0,84,0.00,,,0.00,VWS V12.08,2013-11-30 01:15:00,
2013-11-29 20:20:00,23.0,18.9,30.81,ESE,112,0.0,0.0,84,0.00,,,0.00,VWS V12.08,2013-11-30 01:20:00,
2013-11-29 20:25:00,23.0,18.9,30.81,ESE,112,0.0,0.0,84,0.00,,,0.00,VWS V12.08,2013-11-30 01:25:00,
2013-11-29 20:30:00,22.9,18.8,30.80,ESE,112,0.0,0.0,84,0.00,,,0.00,VWS V12.08,2013-11-30 01:30:00,
2013-11-29 20:35:00,22.9,19.1,30.80,ESE,112,0.0,0.0,85,0.00,,,0.00,VWS V12.08,2013-11-30 01:35:00,
2013-11-29 20:40:00,22.9,19.1,30.80,ESE,112,0.0,0.0,85,0.00,,,0.00,VWS V12.08,2013-11-30 01:40:00,
2013-11-29 20:45:00,22.9,19.1,30.80,ESE,112,0.0,0.0,85,0.00,,,0.00,VWS V12.08,2013-11-30 01:45:00,
2013-11-29 20:50:00,22.9,19.1,30.80,ESE,112,0.0,0.0,85,0.00,,,0.00,VWS V12.08,2013-11-30 01:50:00,
2013-11-29 20:55:00,22.9,19.4,30.80,ESE,112,0.0,0.0,86,0.00,,,0.00,VWS V12.08,2013-11-30 01:55:00,
2013-11-29 21:00:00,22.9,19.4,30.79,ESE,112,0.0,0.0,86,0.00,,,0.00,VWS V12.08,2013-11-30 02:00:00,
2013-11-29 21:05:00,23.0,19.4,30.79,ESE,112,0.0,0.0,86,0.00,,,0.00,VWS V12.08,2013-11-30 02:05:00,
2013-11-29 21:10:00,23.0,19.4,30.79,ESE,112,0.0,0.0,86,0.00,,,0.00,VWS V12.08,2013-11-30 02:10:00,
2013-11-29 21:15:00,23.0,19.4,30.77,ESE,112,0.0,0.0,86,0.00,,,0.00,VWS V12.08,2013-11-30 02:15:00,
2013-11-29 21:20:00,23.1,19.5,30.77,ESE,112,0.0,0.0,86,0.00,,,0.00,VWS V12.08,2013-11-30 02:20:00,
2013-11-29 21:25:00,23.2,19.9,30.77,ESE,112,0.0,0.0,87,0.00,,,0.00,VWS V12.08,2013-11-30 02:25:00,
2013-11-29 21:30:00,23.2,19.9,30.77,ESE,112,0.0,0.0,87,0.00,,,0.00,VWS V12.08,2013-11-30 02:30:00,
2013-11-29 21:35:00,23.3,20.0,30.77,ESE,112,0.0,0.0,87,0.00,,,0.00,VWS V12.08,2013-11-30 02:35:00,
2013-11-29 21:40:00,23.5,20.5,30.77,ESE,112,0.0,0.0,88,0.00,,,0.00,VWS V12.08,2013-11-30 02:40:00,
2013-11-29 21:45:00,23.8,20.8,30.76,North,0,0.0,0.0,88,0.00,,,0.00,VWS V12.08,2013-11-30 02:45:00,
2013-11-29 21:50:00,24.1,21.1,30.76,North,0,0.0,0.0,88,0.00,,,0.00,VWS V12.08,2013-11-30 02:50:00,
2013-11-29 21:55:00,24.4,21.4,30.76,North,0,0.0,0.0,88,0.00,,,0.00,VWS V12.08,2013-11-30 02:55:00,
2013-11-29 22:00:00,24.7,21.7,30.76,North,0,0.0,0.0,88,0.00,,,0.00,VWS V12.08,2013-11-30 03:00:00,
2013-11-29 22:05:00,25.0,22.0,30.76,North,0,0.0,0.0,88,0.00,,,0.00,VWS V12.08,2013-11-30 03:05:00,
2013-11-29 22:10:00,25.3,22.2,30.76,North,0,0.0,0.0,88,0.00,,,0.00,VWS V12.08,2013-11-30 03:10:00,
2013-11-29 22:15:00,25.6,22.3,30.74,North,0,0.0,0.0,87,0.00,,,0.00,VWS V12.08,2013-11-30 03:15:00,
2013-11-29 22:20:00,25.8,22.5,30.74,North,0,0.0,0.0,87,0.00,,,0.00,VWS V12.08,2013-11-30 03:20:00,
2013-11-29 22:25:00,26.0,22.4,30.74,North,0,0.0,0.0,86,0.00,,,0.00,VWS V12.08,2013-11-30 03:25:00,
2013-11-29 22:30:00,26.2,22.3,30.74,North,0,0.0,0.0,85,0.00,,,0.00,VWS V12.08,2013-11-30 03:30:00,
2013-11-29 22:35:00,26.3,22.4,30.74,SE,135,0.0,3.0,85,0.00,,,0.00,VWS V12.08,2013-11-30 03:35:00,
2013-11-29 22:40:00,26.6,22.1,30.74,SE,135,0.0,0.0,83,0.00,,,0.00,VWS V12.08,2013-11-30 03:40:00,
2013-11-29 22:45:00,26.9,22.1,30.73,SE,135,0.0,1.0,82,0.00,,,0.00,VWS V12.08,2013-11-30 03:45:00,
2013-11-29 22:50:00,27.2,21.6,30.73,South,180,0.0,3.0,79,0.00,,,0.00,VWS V12.08,2013-11-30 03:50:00,
2013-11-29 22:55:00,27.6,21.6,30.73,South,180,0.0,0.0,78,0.00,,,0.00,VWS V12.08,2013-11-30 03:55:00,
2013-11-29 23:00:00,27.8,21.2,30.73,South,180,0.0,0.0,76,0.00,,,0.00,VWS V12.08,2013-11-30 04:00:00,
2013-11-29 23:05:00,28.0,20.8,30.73,SSE,158,0.0,3.0,74,0.00,,,0.00,VWS V12.08,2013-11-30 04:05:00,
2013-11-29 23:10:00,28.2,21.0,30.73,SSE,158,0.0,0.0,74,0.00,,,0.00,VWS V12.08,2013-11-30 04:10:00,
2013-11-29 23:15:00,28.4,20.9,30.72,SSE,158,0.0,0.0,73,0.00,,,0.00,VWS V12.08,2013-11-30 04:15:00,
2013-11-29 23:20:00,28.5,20.6,30.72,SSE,158,0.0,1.0,72,0.00,,,0.00,VWS V12.08,2013-11-30 04:20:00,
2013-11-29 23:25:00,28.6,20.7,30.72,SSE,158,0.0,0.0,72,0.00,,,0.00,VWS V12.08,2013-11-30 04:25:00,
2013-11-29 23:30:00,28.7,20.8,30.71,SSE,158,0.0,0.0,72,0.00,,,0.00,VWS V12.08,2013-11-30 04:30:00,
2013-11-29 23:35:00,28.7,20.5,30.71,SSE,158,0.0,1.0,71,0.00,,,0.00,VWS V12.08,2013-11-30 04:35:00,
2013-11-29 23:40:00,28.7,20.5,30.71,SSE,158,0.0,1.0,71,0.00,,,0.00,VWS V12.08,2013-11-30 04:40:00,
2013-11-29 23:45:00,28.7,20.5,30.71,SE,135,0.0,3.0,71,0.00,,,0.00,VWS V12.08,2013-11-30 04:45:00,
2013-11-29 23:50:00,28.7,20.2,30.71,SE,135,0.0,0.0,70,0.00,,,0.00,VWS V12.08,2013-11-30 04:50:00,
2013-11-29 23:55:00,28.8,20.3,30.71,SE,135,0.0,2.0,70,0.00,,,0.00,VWS V12.08,2013-11-30 04:55:00,